createdAt,value
2018-04-19T00:01:53.791Z,15.30
2018-04-19T00:04:21.311Z,15.30
2018-04-19T00:06:50.115Z,15.10
2018-04-19T00:09:17.639Z,15.10
2018-04-19T00:11:45.213Z,15.00
2018-04-19T00:14:12.755Z,15.00
2018-04-19T00:16:40.307Z,14.90
2018-04-19T00:19:07.833Z,14.90
2018-04-19T00:21:35.355Z,14.80
2018-04-19T00:24:02.927Z,14.70
2018-04-19T00:26:30.446Z,14.70
2018-04-19T00:28:57.998Z,14.60
2018-04-19T00:31:25.526Z,14.60
2018-04-19T00:33:53.066Z,14.50
2018-04-19T00:36:21.349Z,14.40
2018-04-19T00:38:49.064Z,14.40
2018-04-19T00:41:17.362Z,14.40
2018-04-19T00:43:44.903Z,14.40
2018-04-19T00:46:12.429Z,14.40
2018-04-19T00:48:39.984Z,14.40
2018-04-19T00:51:07.506Z,14.30
2018-04-19T00:53:35.816Z,14.40
2018-04-19T00:56:03.375Z,14.40
2018-04-19T00:58:30.931Z,14.40
2018-04-19T01:00:58.456Z,14.50
2018-04-19T01:03:26.003Z,14.50
2018-04-19T01:05:53.514Z,14.60
2018-04-19T01:08:21.095Z,14.60
2018-04-19T01:10:48.618Z,14.60
2018-04-19T01:13:16.161Z,14.50
2018-04-19T01:15:43.719Z,14.50
2018-04-19T01:18:11.259Z,14.40
2018-04-19T01:20:38.783Z,14.40
2018-04-19T01:23:06.350Z,14.30
2018-04-19T01:25:33.870Z,14.30
2018-04-19T01:28:01.421Z,14.30
2018-04-19T01:30:28.942Z,14.30
2018-04-19T01:32:56.506Z,14.20
2018-04-19T01:35:35.998Z,14.10
2018-04-19T01:38:04.310Z,14.10
2018-04-19T01:40:31.834Z,14.10
2018-04-19T01:42:59.371Z,14.00
2018-04-19T01:45:26.895Z,14.00
2018-04-19T01:47:55.212Z,14.00
2018-04-19T01:50:22.740Z,14.00
2018-04-19T01:52:50.289Z,14.00
2018-04-19T01:55:17.831Z,13.90
2018-04-19T01:57:45.366Z,13.90
2018-04-19T02:00:12.887Z,13.80
2018-04-19T02:02:41.203Z,13.70
2018-04-19T02:05:08.855Z,13.70
2018-04-19T02:07:36.419Z,13.70
2018-04-19T02:10:03.971Z,13.60
2018-04-19T02:12:32.263Z,13.60
2018-04-19T02:14:59.810Z,13.60
2018-04-19T02:17:27.326Z,13.60
2018-04-19T02:19:55.644Z,13.60
2018-04-19T02:22:23.178Z,13.60
2018-04-19T02:24:50.719Z,13.60
2018-04-19T02:27:18.270Z,13.60
2018-04-19T02:29:45.810Z,13.60
2018-04-19T02:32:13.343Z,13.60
2018-04-19T02:34:40.909Z,13.60
2018-04-19T02:37:08.451Z,13.60
2018-04-19T02:39:36.011Z,13.60
2018-04-19T02:42:03.739Z,13.60
2018-04-19T02:44:31.288Z,13.60
2018-04-19T02:46:58.807Z,13.60
2018-04-19T02:49:26.346Z,13.50
2018-04-19T02:51:53.866Z,13.50
2018-04-19T02:54:22.177Z,13.50
2018-04-19T02:56:49.730Z,13.50
2018-04-19T02:59:17.306Z,13.50
2018-04-19T03:01:44.856Z,13.40
2018-04-19T03:04:13.162Z,13.40
2018-04-19T03:06:40.699Z,13.30
2018-04-19T03:09:08.246Z,13.30
2018-04-19T03:11:35.808Z,13.30
2018-04-19T03:14:03.383Z,13.30
2018-04-19T03:16:30.903Z,13.30
2018-04-19T03:18:58.488Z,13.20
2018-04-19T03:21:27.499Z,13.20
2018-04-19T03:23:55.039Z,13.20
2018-04-19T03:26:22.559Z,13.10
2018-04-19T03:28:50.979Z,13.10
2018-04-19T03:31:18.515Z,13.10
2018-04-19T03:33:46.059Z,13.10
2018-04-19T03:36:13.580Z,13.00
2018-04-19T03:38:41.131Z,13.00
2018-04-19T03:41:08.663Z,13.00
2018-04-19T03:43:36.209Z,13.00
2018-04-19T03:46:03.760Z,12.90
2018-04-19T03:48:31.342Z,12.90
2018-04-19T03:50:59.180Z,12.90
2018-04-19T03:53:26.797Z,12.90
2018-04-19T03:55:55.601Z,12.90
2018-04-19T03:58:23.450Z,12.90
2018-04-19T04:00:52.321Z,12.90
2018-04-19T04:03:19.890Z,12.90
2018-04-19T04:05:47.444Z,12.90
2018-04-19T04:08:15.017Z,12.90
2018-04-19T04:10:42.626Z,12.90
2018-04-19T04:13:10.150Z,12.90
2018-04-19T04:15:37.702Z,12.90
2018-04-19T04:18:17.112Z,12.90
2018-04-19T04:20:56.563Z,12.90
2018-04-19T04:23:50.591Z,12.90
2018-04-19T04:26:18.136Z,13.00
2018-04-19T04:28:45.663Z,13.00
2018-04-19T04:31:13.275Z,13.00
2018-04-19T04:33:40.788Z,13.00
2018-04-19T04:36:08.352Z,13.10
2018-04-19T04:38:35.889Z,13.20
2018-04-19T04:41:04.953Z,13.30
2018-04-19T04:43:32.473Z,13.30
2018-04-19T04:46:00.070Z,13.30
2018-04-19T04:48:27.583Z,13.40
2018-04-19T04:50:55.145Z,13.40
2018-04-19T04:53:22.658Z,13.50
2018-04-19T04:55:50.203Z,13.60
2018-04-19T04:58:17.731Z,13.70
2018-04-19T05:00:45.286Z,13.80
2018-04-19T05:03:12.826Z,13.90
2018-04-19T05:05:40.410Z,14.00
2018-04-19T05:08:07.935Z,14.10
2018-04-19T05:10:35.584Z,14.10
2018-04-19T05:13:03.122Z,14.20
2018-04-19T05:15:30.672Z,14.30
2018-04-19T05:17:58.204Z,14.40
2018-04-19T05:20:26.578Z,14.70
2018-04-19T05:22:55.043Z,14.70
2018-04-19T05:25:22.603Z,14.80
2018-04-19T05:27:50.123Z,14.90
2018-04-19T05:30:17.698Z,15.00
2018-04-19T05:32:45.230Z,15.10
2018-04-19T05:35:12.883Z,15.20
2018-04-19T05:37:40.402Z,15.40
2018-04-19T05:40:07.950Z,15.50
2018-04-19T05:42:35.465Z,15.50
2018-04-19T05:45:03.153Z,15.70
2018-04-19T05:47:30.715Z,15.70
2018-04-19T05:49:58.239Z,15.80
2018-04-19T05:52:25.792Z,16.00
2018-04-19T05:54:53.322Z,16.10
2018-04-19T05:57:20.870Z,16.20
2018-04-19T05:59:48.386Z,16.40
2018-04-19T06:02:15.960Z,16.50
2018-04-19T06:04:43.484Z,16.60
2018-04-19T06:07:11.057Z,16.70
2018-04-19T06:09:38.579Z,16.80
2018-04-19T06:12:06.168Z,16.90
2018-04-19T06:14:33.715Z,17.10
2018-04-19T06:17:01.263Z,17.20
2018-04-19T06:19:28.796Z,17.30
2018-04-19T06:21:56.335Z,17.40
2018-04-19T06:24:23.879Z,17.50
2018-04-19T06:26:52.216Z,17.80
2018-04-19T06:29:19.751Z,17.80
2018-04-19T06:31:47.334Z,17.90
2018-04-19T06:34:15.303Z,17.90
2018-04-19T06:36:42.991Z,18.00
2018-04-19T06:39:10.539Z,18.10
2018-04-19T06:41:38.096Z,18.20
2018-04-19T06:44:05.645Z,18.30
2018-04-19T06:46:33.197Z,18.50
2018-04-19T06:49:00.719Z,18.50
2018-04-19T06:51:28.388Z,18.60
2018-04-19T06:53:56.007Z,18.70
2018-04-19T06:56:23.583Z,18.90
2018-04-19T06:58:51.102Z,18.90
2018-04-19T07:01:18.654Z,19.00
2018-04-19T07:03:46.186Z,19.20
2018-04-19T07:06:13.755Z,19.30
2018-04-19T07:08:41.331Z,19.40
2018-04-19T07:11:08.938Z,19.40
2018-04-19T07:13:36.490Z,19.50
2018-04-19T07:16:04.061Z,19.50
2018-04-19T07:18:31.647Z,19.50
2018-04-19T07:21:00.109Z,19.60
2018-04-19T07:23:27.649Z,19.60
2018-04-19T07:25:55.177Z,19.60
2018-04-19T07:28:23.510Z,19.80
2018-04-19T07:30:51.052Z,19.80
2018-04-19T07:33:18.608Z,19.90
2018-04-19T07:35:46.139Z,20.00
2018-04-19T07:38:13.695Z,20.10
2018-04-19T07:40:41.322Z,20.10
2018-04-19T07:43:08.874Z,20.20
2018-04-19T07:45:36.403Z,20.30
2018-04-19T07:48:03.947Z,20.30
2018-04-19T07:50:31.463Z,20.50
2018-04-19T07:52:59.020Z,20.60
2018-04-19T07:55:26.534Z,20.70
2018-04-19T07:57:54.873Z,21.10
2018-04-19T08:00:22.398Z,21.10
2018-04-19T08:02:49.954Z,21.20
2018-04-19T08:05:18.288Z,21.10
2018-04-19T08:07:45.827Z,21.10
2018-04-19T08:10:13.352Z,21.10
2018-04-19T08:12:40.898Z,21.20
2018-04-19T08:15:08.437Z,21.20
2018-04-19T08:17:36.108Z,21.20
2018-04-19T08:20:03.626Z,21.20
2018-04-19T08:22:31.936Z,21.50
2018-04-19T08:24:59.454Z,21.50
2018-04-19T08:27:27.023Z,21.60
2018-04-19T08:29:54.563Z,21.60
2018-04-19T08:32:22.206Z,21.60
2018-04-19T08:34:49.729Z,21.70
2018-04-19T08:37:17.327Z,21.50
2018-04-19T08:39:44.854Z,21.50
2018-04-19T08:42:12.404Z,21.60
2018-04-19T08:44:40.038Z,21.70
2018-04-19T08:47:08.379Z,21.90
2018-04-19T08:49:35.923Z,21.90
2018-04-19T08:52:03.482Z,21.90
2018-04-19T08:54:31.023Z,22.00
2018-04-19T08:56:58.556Z,22.10
2018-04-19T08:59:26.136Z,22.20
2018-04-19T09:01:55.162Z,22.20
2018-04-19T09:04:22.710Z,22.20
2018-04-19T09:06:50.225Z,22.20
2018-04-19T09:09:17.907Z,22.30
2018-04-19T09:11:45.426Z,22.40
2018-04-19T09:14:13.739Z,22.60
2018-04-19T09:16:42.251Z,22.60
2018-04-19T09:19:10.571Z,22.60
2018-04-19T09:21:38.140Z,22.60
2018-04-19T09:24:05.720Z,22.70
2018-04-19T09:26:33.275Z,22.80
2018-04-19T09:29:00.863Z,22.80
2018-04-19T09:31:28.387Z,22.90
2018-04-19T09:33:55.943Z,22.90
2018-04-19T09:36:23.472Z,22.90
2018-04-19T09:38:51.009Z,22.90
2018-04-19T09:41:18.527Z,22.90
2018-04-19T09:43:46.844Z,22.60
2018-04-19T09:46:14.362Z,22.60
2018-04-19T09:48:41.903Z,22.70
2018-04-19T09:51:09.435Z,22.80
2018-04-19T09:53:36.987Z,22.90
2018-04-19T09:56:04.515Z,23.00
2018-04-19T09:58:32.138Z,23.10
2018-04-19T10:01:05.418Z,23.10
2018-04-19T10:03:39.504Z,23.20
2018-04-19T10:06:07.793Z,23.20
2018-04-19T10:08:36.111Z,23.30
2018-04-19T10:11:05.158Z,23.30
2018-04-19T10:13:32.769Z,23.30
2018-04-19T10:16:01.170Z,23.50
2018-04-19T10:18:28.727Z,23.40
2018-04-19T10:20:56.256Z,23.40
2018-04-19T10:23:23.781Z,23.50
2018-04-19T10:25:52.138Z,23.50
2018-04-19T10:28:20.426Z,23.40
2018-04-19T10:30:47.970Z,23.40
2018-04-19T10:33:15.495Z,23.40
2018-04-19T10:35:43.075Z,23.40
2018-04-19T10:38:10.594Z,23.50
2018-04-19T10:40:38.144Z,23.50
2018-04-19T10:43:05.686Z,23.50
2018-04-19T10:45:33.358Z,23.60
2018-04-19T10:48:00.896Z,23.60
2018-04-19T10:50:28.541Z,23.70
2018-04-19T10:52:56.092Z,23.70
2018-04-19T10:55:23.650Z,23.70
2018-04-19T10:57:51.329Z,23.70
2018-04-19T11:00:19.790Z,23.60
2018-04-19T11:02:48.093Z,23.70
2018-04-19T11:05:15.653Z,23.60
2018-04-19T11:07:43.215Z,23.60
2018-04-19T11:10:10.841Z,23.60
2018-04-19T11:12:38.349Z,23.80
2018-04-19T11:15:06.855Z,24.00
2018-04-19T11:17:34.554Z,23.90
2018-04-19T11:20:02.870Z,23.90
2018-04-19T11:22:30.462Z,23.90
2018-04-19T11:24:58.788Z,23.90
2018-04-19T11:27:26.311Z,23.90
2018-04-19T11:29:53.869Z,23.80
2018-04-19T11:32:21.424Z,23.80
2018-04-19T11:34:50.517Z,23.80
2018-04-19T11:37:18.052Z,23.80
2018-04-19T11:39:45.639Z,23.80
2018-04-19T11:42:13.939Z,23.80
2018-04-19T11:44:41.515Z,23.80
2018-04-19T11:47:09.073Z,23.80
2018-04-19T11:49:37.463Z,23.80
2018-04-19T11:52:05.038Z,23.70
2018-04-19T11:54:32.609Z,23.40
2018-04-19T11:57:00.173Z,23.50
2018-04-19T11:59:28.478Z,23.80
2018-04-19T12:01:56.033Z,23.80
2018-04-19T12:04:23.634Z,23.90
2018-04-19T12:06:52.112Z,24.20
2018-04-19T12:09:19.634Z,24.10
2018-04-19T12:11:47.193Z,24.20
2018-04-19T12:14:15.479Z,24.40
2018-04-19T12:16:43.017Z,24.40
2018-04-19T12:19:10.879Z,24.50
2018-04-19T12:21:38.554Z,24.60
2018-04-19T12:24:07.048Z,24.60
2018-04-19T12:26:35.403Z,24.70
2018-04-19T12:29:03.109Z,24.70
2018-04-19T12:31:30.711Z,24.90
2018-04-19T12:33:59.763Z,24.90
2018-04-19T12:36:29.105Z,24.90
2018-04-19T12:38:56.643Z,24.80
2018-04-19T12:41:24.212Z,24.80
2018-04-19T12:43:51.730Z,24.80
2018-04-19T12:46:19.299Z,24.90
2018-04-19T12:48:46.810Z,24.90
2018-04-19T12:51:15.532Z,25.10
2018-04-19T12:53:43.352Z,25.10
2018-04-19T12:56:10.910Z,25.20
2018-04-19T12:58:38.435Z,25.10
2018-04-19T13:01:06.026Z,25.00
2018-04-19T13:03:33.551Z,24.90
2018-04-19T13:06:03.416Z,24.90
2018-04-19T13:08:30.971Z,24.90
2018-04-19T13:10:58.525Z,25.00
2018-04-19T13:13:26.104Z,25.10
2018-04-19T13:15:53.644Z,25.10
2018-04-19T13:18:21.233Z,25.20
2018-04-19T13:20:48.753Z,25.10
2018-04-19T13:23:18.102Z,25.10
2018-04-19T13:25:45.726Z,25.10
2018-04-19T13:28:13.381Z,25.20
2018-04-19T13:30:41.626Z,25.20
2018-04-19T13:33:09.175Z,25.20
2018-04-19T13:35:36.695Z,25.30
2018-04-19T13:38:05.014Z,25.50
2018-04-19T13:40:32.563Z,25.40
2018-04-19T13:43:00.114Z,25.60
2018-04-19T13:45:27.655Z,25.60
2018-04-19T13:47:56.238Z,25.70
2018-04-19T13:50:23.914Z,25.60
2018-04-19T13:52:52.366Z,25.70
2018-04-19T13:55:20.701Z,25.70
2018-04-19T13:57:48.315Z,25.70
2018-04-19T14:00:15.920Z,25.80
2018-04-19T14:02:43.528Z,25.80
2018-04-19T14:05:11.618Z,25.80
2018-04-19T14:07:39.182Z,25.80
2018-04-19T14:10:07.474Z,26.00
2018-04-19T14:12:35.074Z,26.00
2018-04-19T14:15:03.498Z,26.20
2018-04-19T14:17:31.114Z,26.20
2018-04-19T14:19:58.650Z,26.30
2018-04-19T14:22:27.192Z,26.30
2018-04-19T14:24:55.531Z,26.40
2018-04-19T14:27:23.298Z,26.40
2018-04-19T14:29:50.964Z,26.60
2018-04-19T14:32:18.666Z,26.60
2018-04-19T14:34:46.243Z,26.70
2018-04-19T14:37:13.810Z,26.80
2018-04-19T14:39:42.149Z,27.00
2018-04-19T14:42:10.003Z,27.00
2018-04-19T14:44:38.341Z,26.90
2018-04-19T14:47:05.912Z,26.90
2018-04-19T14:49:34.272Z,26.90
2018-04-19T14:52:01.824Z,26.90
2018-04-19T14:54:29.383Z,26.90
2018-04-19T14:56:57.666Z,26.90
2018-04-19T14:59:25.267Z,26.80
2018-04-19T15:01:52.798Z,26.90
2018-04-19T15:04:20.375Z,27.00
2018-04-19T15:06:48.656Z,26.90
2018-04-19T15:09:16.378Z,26.90
2018-04-19T15:11:43.918Z,27.00
2018-04-19T15:14:11.500Z,27.10
2018-04-19T15:16:39.144Z,27.20
2018-04-19T15:19:06.850Z,27.50
2018-04-19T15:21:34.443Z,27.70
2018-04-19T15:24:02.041Z,27.90
2018-04-19T15:26:30.342Z,28.70
2018-04-19T15:28:57.884Z,28.70
2018-04-19T15:31:25.422Z,28.90
2018-04-19T15:33:53.029Z,29.10
2018-04-19T15:36:20.558Z,29.30
2018-04-19T15:38:48.175Z,29.30
2018-04-19T15:41:15.851Z,29.30
2018-04-19T15:43:43.713Z,29.30
2018-04-19T15:46:12.072Z,29.40
2018-04-19T15:48:39.658Z,29.50
2018-04-19T15:51:08.016Z,30.10
2018-04-19T15:53:36.334Z,30.60
2018-04-19T15:56:03.878Z,30.60
2018-04-19T15:58:32.811Z,31.50
2018-04-19T16:01:00.400Z,32.50
2018-04-19T16:03:27.952Z,33.40
2018-04-19T16:05:55.513Z,33.70
2018-04-19T16:08:23.052Z,34.00
2018-04-19T16:10:50.624Z,34.70
2018-04-19T16:13:18.945Z,35.80
2018-04-19T16:15:46.912Z,35.70
2018-04-19T16:18:14.446Z,36.20
2018-04-19T16:20:42.038Z,37.00
2018-04-19T16:23:10.327Z,37.50
2018-04-19T16:25:37.879Z,37.40
2018-04-19T16:28:05.403Z,37.20
2018-04-19T16:30:33.807Z,36.40
2018-04-19T16:33:01.370Z,36.40
2018-04-19T16:35:30.427Z,36.30
2018-04-19T16:37:57.964Z,36.30
2018-04-19T16:40:25.610Z,36.30
2018-04-19T16:42:54.430Z,35.90
2018-04-19T16:45:22.742Z,35.80
2018-04-19T16:47:50.294Z,35.80
2018-04-19T16:50:17.887Z,35.90
2018-04-19T16:52:45.487Z,36.00
2018-04-19T16:55:14.462Z,34.90
2018-04-19T16:57:41.997Z,34.90
2018-04-19T17:00:09.580Z,34.40
2018-04-19T17:02:37.114Z,34.40
2018-04-19T17:05:04.662Z,33.90
2018-04-19T17:07:32.989Z,34.10
2018-04-19T17:10:00.566Z,34.10
2018-04-19T17:12:28.158Z,34.00
2018-04-19T17:14:55.755Z,33.80
2018-04-19T17:17:23.281Z,33.60
2018-04-19T17:19:50.842Z,33.30
2018-04-19T17:22:18.390Z,33.00
2018-04-19T17:24:46.174Z,32.80
2018-04-19T17:27:16.237Z,31.90
2018-04-19T17:29:43.988Z,31.90
2018-04-19T17:32:11.586Z,31.40
2018-04-19T17:34:39.103Z,31.00
2018-04-19T17:37:08.146Z,30.10
2018-04-19T17:39:35.683Z,30.10
2018-04-19T17:42:03.544Z,29.90
2018-04-19T17:44:31.089Z,29.50
2018-04-19T17:46:58.650Z,29.10
2018-04-19T17:49:26.178Z,28.90
2018-04-19T17:51:53.718Z,28.40
2018-04-19T17:54:21.266Z,27.70
2018-04-19T17:56:48.908Z,27.20
2018-04-19T17:59:17.204Z,26.60
2018-04-19T18:01:44.747Z,26.00
2018-04-19T18:04:12.261Z,25.60
2018-04-19T18:06:39.835Z,25.20
2018-04-19T18:09:07.350Z,24.80
2018-04-19T18:11:34.891Z,24.50
2018-04-19T18:14:02.427Z,24.20
2018-04-19T18:16:30.004Z,24.00
2018-04-19T18:18:57.526Z,23.70
2018-04-19T18:21:26.738Z,23.50
2018-04-19T18:23:55.046Z,23.00
2018-04-19T18:26:22.595Z,23.00
2018-04-19T18:28:50.132Z,22.80
2018-04-19T18:31:17.751Z,22.60
2018-04-19T18:33:46.107Z,22.30
2018-04-19T18:36:13.670Z,22.30
2018-04-19T18:38:41.991Z,22.00
2018-04-19T18:41:09.514Z,22.00
2018-04-19T18:43:37.096Z,21.90
2018-04-19T18:46:05.425Z,21.60
2018-04-19T18:48:32.995Z,21.60
2018-04-19T18:51:01.304Z,21.50
2018-04-19T18:53:28.848Z,21.40
2018-04-19T18:55:56.390Z,21.30
2018-04-19T18:58:24.032Z,21.20
2018-04-19T19:00:51.618Z,21.10
2018-04-19T19:03:19.209Z,21.00
2018-04-19T19:05:46.827Z,20.90
2018-04-19T19:08:14.376Z,20.80
2018-04-19T19:10:41.899Z,20.70
2018-04-19T19:13:09.543Z,20.60
2018-04-19T19:19:02.431Z,20.50
2018-04-19T19:21:30.714Z,20.40
2018-04-19T19:23:58.278Z,20.40
2018-04-19T19:26:25.802Z,20.40
2018-04-19T19:28:53.383Z,20.30
2018-04-19T19:31:20.911Z,20.20
2018-04-19T19:33:48.456Z,20.10
2018-04-19T19:36:15.986Z,20.00
2018-04-19T19:38:43.525Z,20.00
2018-04-19T19:41:11.042Z,19.90
2018-04-19T19:43:39.374Z,19.80
2018-04-19T19:46:06.891Z,19.80
2018-04-19T19:48:34.448Z,19.70
2018-04-19T19:51:01.993Z,19.70
2018-04-19T19:53:29.555Z,19.60
2018-04-19T19:55:57.090Z,19.50
2018-04-19T19:58:24.667Z,19.50
2018-04-19T20:00:52.299Z,19.50
2018-04-19T20:03:19.911Z,19.50
2018-04-19T20:05:47.484Z,19.40
2018-04-19T20:08:15.117Z,19.40
2018-04-19T20:10:42.655Z,19.40
2018-04-19T20:13:10.206Z,19.30
2018-04-19T20:15:37.731Z,19.30
2018-04-19T20:18:05.278Z,19.30
2018-04-19T20:20:32.834Z,19.20
2018-04-19T20:23:00.427Z,19.20
2018-04-19T20:25:28.725Z,19.10
2018-04-19T20:27:56.283Z,19.10
2018-04-19T20:30:23.822Z,19.10
2018-04-19T20:32:51.479Z,19.00
2018-04-19T20:35:19.805Z,18.90
2018-04-19T20:37:47.363Z,18.90
2018-04-19T20:40:14.878Z,18.90
2018-04-19T20:42:43.193Z,18.90
2018-04-19T20:45:10.854Z,18.90
2018-04-19T20:47:38.388Z,18.90
2018-04-19T20:50:06.869Z,18.80
2018-04-19T20:52:35.199Z,18.80
2018-04-19T20:55:02.771Z,18.80
2018-04-19T20:57:30.321Z,18.70
2018-04-19T20:59:58.168Z,18.70
2018-04-19T21:02:26.476Z,18.60
2018-04-19T21:04:54.793Z,18.60
2018-04-19T21:07:22.362Z,18.60
2018-04-19T21:09:50.685Z,18.60
2018-04-19T21:12:18.382Z,18.50
2018-04-19T21:14:46.705Z,18.30
2018-04-19T21:17:14.248Z,18.30
2018-04-19T21:19:41.801Z,18.30
2018-04-19T21:22:10.174Z,18.30
2018-04-19T21:24:37.755Z,18.30
2018-04-19T21:27:05.340Z,18.20
2018-04-19T21:29:32.894Z,18.20
2018-04-19T21:32:00.419Z,18.20
2018-04-19T21:34:27.968Z,18.20
2018-04-19T21:36:55.493Z,18.10
2018-04-19T21:39:23.035Z,18.10
2018-04-19T21:41:50.598Z,18.10
2018-04-19T21:44:18.244Z,18.00
2018-04-19T21:46:46.760Z,18.00
2018-04-19T21:49:15.080Z,17.90
2018-04-19T21:51:42.627Z,17.90
2018-04-19T21:54:10.174Z,17.80
2018-04-19T21:56:37.714Z,17.90
2018-04-19T21:59:05.261Z,17.80
2018-04-19T22:01:32.782Z,17.80
2018-04-19T22:04:00.359Z,17.80
2018-04-19T22:06:27.892Z,17.70
2018-04-19T22:08:55.444Z,17.80
2018-04-19T22:11:22.977Z,17.70
2018-04-19T22:13:50.538Z,17.70
2018-04-19T22:16:18.124Z,17.60
2018-04-19T22:18:46.419Z,17.60
2018-04-19T22:21:13.960Z,17.50
2018-04-19T22:23:41.488Z,17.50
2018-04-19T22:26:09.087Z,17.50
2018-04-19T22:28:36.635Z,17.50
2018-04-19T22:31:04.194Z,17.50
2018-04-19T22:33:31.736Z,17.40
2018-04-19T22:36:00.051Z,17.30
2018-04-19T22:38:27.571Z,17.20
2018-04-19T22:40:55.118Z,17.20
2018-04-19T22:43:22.646Z,17.10
2018-04-19T22:45:50.967Z,17.10
2018-04-19T22:48:18.485Z,17.10
2018-04-19T22:50:46.098Z,17.10
2018-04-19T22:53:14.403Z,17.00
2018-04-19T22:55:41.968Z,17.00
2018-04-19T22:58:09.599Z,16.90
2018-04-19T23:00:37.263Z,16.90
2018-04-19T23:03:04.790Z,16.90
2018-04-19T23:05:32.343Z,16.80
2018-04-19T23:07:59.880Z,16.80
2018-04-19T23:10:28.103Z,16.70
2018-04-19T23:12:55.634Z,16.70
2018-04-19T23:15:23.947Z,16.70
2018-04-19T23:17:51.497Z,16.60
2018-04-19T23:20:19.034Z,16.70
2018-04-19T23:22:46.572Z,16.60
2018-04-19T23:25:14.227Z,16.60
2018-04-19T23:27:41.752Z,16.50
2018-04-19T23:30:09.301Z,16.50
2018-04-19T23:32:36.827Z,16.40
2018-04-19T23:35:04.844Z,16.40
2018-04-19T23:37:33.198Z,16.30
2018-04-19T23:40:01.528Z,16.30
2018-04-19T23:42:29.069Z,16.30
2018-04-19T23:44:56.625Z,16.30
2018-04-19T23:47:24.349Z,16.30
2018-04-19T23:49:51.929Z,16.20
2018-04-19T23:52:19.566Z,16.20
2018-04-19T23:54:47.119Z,16.20
2018-04-19T23:57:14.666Z,16.10
2018-04-19T23:59:42.188Z,16.10
